sensor_id;sensor_type;location;lat;lon;timestamp;P1;P2;P0
84282;PMS7003;74440;52.600;21.450;2023-11-25T14:32:24;35;32;22
84282;PMS7003;74440;52.600;21.450;2023-11-25T14:33:40;34;30;20
84282;PMS7003;74440;52.600;21.450;2023-11-25T14:34:41;34;30;20
84282;PMS7003;74440;52.600;21.450;2023-11-25T14:35:57;31;28;21
84282;PMS7003;74440;52.600;21.450;2023-11-25T14:37:00;31;28;21
84282;PMS7003;74440;52.600;21.450;2023-11-25T14:38:14;34;29;21
84282;PMS7003;74440;52.600;21.450;2023-11-25T14:39:15;34;29;21
84282;PMS7003;74440;52.600;21.450;2023-11-25T14:40:30;30;27;19
84282;PMS7003;74440;52.600;21.450;2023-11-25T14:41:38;30;27;19
84282;PMS7003;74440;52.600;21.450;2023-11-25T14:42:47;28;25;19
84282;PMS7003;74440;52.600;21.450;2023-11-25T14:43:49;28;25;19
84282;PMS7003;74440;52.600;21.450;2023-11-25T14:45:07;30;28;21
84282;PMS7003;74440;52.600;21.450;2023-11-25T14:46:10;30;28;21
84282;PMS7003;74440;52.600;21.450;2023-11-25T14:47:21;34;29;20
84282;PMS7003;74440;52.600;21.450;2023-11-25T16:48:55;10;10;7
84282;PMS7003;74440;52.600;21.450;2023-11-25T16:49:57;10;10;8
84282;PMS7003;74440;52.600;21.450;2023-11-25T16:50:59;10;10;8
84282;PMS7003;74440;52.600;21.450;2023-11-25T16:52:01;8;8;6
84282;PMS7003;74440;52.600;21.450;2023-11-25T16:53:03;8;8;6
84282;PMS7003;74440;52.600;21.450;2023-11-25T16:54:05;15;12;9
84282;PMS7003;74440;52.600;21.450;2023-11-25T16:55:07;15;12;9
84282;PMS7003;74440;52.600;21.450;2023-11-25T16:56:09;10;8;7
84282;PMS7003;74440;52.600;21.450;2023-11-25T16:57:10;10;8;7
84282;PMS7003;74440;52.600;21.450;2023-11-25T16:58:23;11;9;7
84282;PMS7003;74440;52.600;21.450;2023-11-25T16:59:25;11;9;7
84282;PMS7003;74440;52.600;21.450;2023-11-25T17:00:40;12;11;7
84282;PMS7003;74440;52.600;21.450;2023-11-25T17:01:42;12;11;7
84282;PMS7003;74440;52.600;21.450;2023-11-25T17:02:57;10;9;6
84282;PMS7003;74440;52.600;21.450;2023-11-25T17:04:00;10;9;6
84282;PMS7003;74440;52.600;21.450;2023-11-25T17:05:14;9;7;5
84282;PMS7003;74440;52.600;21.450;2023-11-25T17:06:16;9;7;5
84282;PMS7003;74440;52.600;21.450;2023-11-25T17:07:31;9;9;7
84282;PMS7003;74440;52.600;21.450;2023-11-25T17:08:33;9;9;7
84282;PMS7003;74440;52.600;21.450;2023-11-25T17:09:48;10;9;6
84282;PMS7003;74440;52.600;21.450;2023-11-25T17:10:49;10;9;6
84282;PMS7003;74440;52.600;21.450;2023-11-25T17:12:05;7;7;4
84282;PMS7003;74440;52.600;21.450;2023-11-25T17:13:07;7;7;4
84282;PMS7003;74440;52.600;21.450;2023-11-25T17:14:21;5;4;4
84282;PMS7003;74440;52.600;21.450;2023-11-25T17:15:25;5;4;4
84282;PMS7003;74440;52.600;21.450;2023-11-25T17:16:38;9;6;5
84282;PMS7003;74440;52.600;21.450;2023-11-25T17:17:43;9;6;5
84282;PMS7003;74440;52.600;21.450;2023-11-25T17:18:58;11;8;5
84282;PMS7003;74440;52.600;21.450;2023-11-25T17:20:00;11;8;5
84282;PMS7003;74440;52.600;21.450;2023-11-25T17:21:12;8;7;4
84282;PMS7003;74440;52.600;21.450;2023-11-25T17:22:13;8;7;4
84282;PMS7003;74440;52.600;21.450;2023-11-25T17:23:29;7;6;4
84282;PMS7003;74440;52.600;21.450;2023-11-25T17:24:30;7;6;4
84282;PMS7003;74440;52.600;21.450;2023-11-25T17:25:45;6;5;4
84282;PMS7003;74440;52.600;21.450;2023-11-25T17:26:47;6;5;4
84282;PMS7003;74440;52.600;21.450;2023-11-25T17:28:02;5;4;3
84282;PMS7003;74440;52.600;21.450;2023-11-25T17:29:04;5;4;3
84282;PMS7003;74440;52.600;21.450;2023-11-25T17:30:19;5;4;3
84282;PMS7003;74440;52.600;21.450;2023-11-25T17:31:21;5;4;3
84282;PMS7003;74440;52.600;21.450;2023-11-25T17:32:36;7;6;4
84282;PMS7003;74440;52.600;21.450;2023-11-25T17:33:37;7;6;4
84282;PMS7003;74440;52.600;21.450;2023-11-25T17:34:53;7;6;5
84282;PMS7003;74440;52.600;21.450;2023-11-25T17:35:55;7;6;5
84282;PMS7003;74440;52.600;21.450;2023-11-25T17:37:10;8;6;4
84282;PMS7003;74440;52.600;21.450;2023-11-25T17:38:13;8;6;4
84282;PMS7003;74440;52.600;21.450;2023-11-25T17:39:27;8;7;4
84282;PMS7003;74440;52.600;21.450;2023-11-25T17:40:28;8;7;4
84282;PMS7003;74440;52.600;21.450;2023-11-25T17:41:43;7;7;4
84282;PMS7003;74440;52.600;21.450;2023-11-25T17:42:45;7;7;4
84282;PMS7003;74440;52.600;21.450;2023-11-25T17:44:00;10;9;6
84282;PMS7003;74440;52.600;21.450;2023-11-25T17:45:03;10;9;6
84282;PMS7003;74440;52.600;21.450;2023-11-25T17:46:17;7;5;3
84282;PMS7003;74440;52.600;21.450;2023-11-25T17:47:19;7;5;3
84282;PMS7003;74440;52.600;21.450;2023-11-25T17:48:34;10;8;6
84282;PMS7003;74440;52.600;21.450;2023-11-25T17:49:37;10;8;6
84282;PMS7003;74440;52.600;21.450;2023-11-25T17:50:51;9;6;4
84282;PMS7003;74440;52.600;21.450;2023-11-25T17:51:53;9;6;4
84282;PMS7003;74440;52.600;21.450;2023-11-25T17:53:08;10;10;6
84282;PMS7003;74440;52.600;21.450;2023-11-25T17:54:09;10;10;6
84282;PMS7003;74440;52.600;21.450;2023-11-25T17:55:24;6;6;4
84282;PMS7003;74440;52.600;21.450;2023-11-25T17:56:26;6;6;4
84282;PMS7003;74440;52.600;21.450;2023-11-25T17:57:41;9;8;5
84282;PMS7003;74440;52.600;21.450;2023-11-25T17:58:43;9;8;5
84282;PMS7003;74440;52.600;21.450;2023-11-25T17:59:58;9;9;6
84282;PMS7003;74440;52.600;21.450;2023-11-25T18:01:00;9;9;6
84282;PMS7003;74440;52.600;21.450;2023-11-25T18:02:15;7;6;5
84282;PMS7003;74440;52.600;21.450;2023-11-25T18:03:17;7;6;5
84282;PMS7003;74440;52.600;21.450;2023-11-25T18:04:32;7;6;4
84282;PMS7003;74440;52.600;21.450;2023-11-25T18:05:33;7;6;4
84282;PMS7003;74440;52.600;21.450;2023-11-25T18:06:49;9;8;6
84282;PMS7003;74440;52.600;21.450;2023-11-25T18:07:50;9;8;6
84282;PMS7003;74440;52.600;21.450;2023-11-25T18:09:06;8;7;4
84282;PMS7003;74440;52.600;21.450;2023-11-25T18:10:10;8;7;4
84282;PMS7003;74440;52.600;21.450;2023-11-25T18:11:23;7;5;4
84282;PMS7003;74440;52.600;21.450;2023-11-25T18:12:25;7;5;4
84282;PMS7003;74440;52.600;21.450;2023-11-25T18:13:39;7;6;5
84282;PMS7003;74440;52.600;21.450;2023-11-25T18:14:41;7;6;5
84282;PMS7003;74440;52.600;21.450;2023-11-25T18:15:56;6;5;4
84282;PMS7003;74440;52.600;21.450;2023-11-25T18:16:58;6;5;4
84282;PMS7003;74440;52.600;21.450;2023-11-25T18:18:13;5;4;4
84282;PMS7003;74440;52.600;21.450;2023-11-25T18:19:15;5;4;4
84282;PMS7003;74440;52.600;21.450;2023-11-25T18:20:30;6;5;4
84282;PMS7003;74440;52.600;21.450;2023-11-25T18:21:32;6;5;4
84282;PMS7003;74440;52.600;21.450;2023-11-25T18:22:47;5;4;3
84282;PMS7003;74440;52.600;21.450;2023-11-25T18:23:51;5;4;3
84282;PMS7003;74440;52.600;21.450;2023-11-25T18:25:04;7;5;4
84282;PMS7003;74440;52.600;21.450;2023-11-25T18:26:06;7;5;4
84282;PMS7003;74440;52.600;21.450;2023-11-25T18:27:20;3;3;3
84282;PMS7003;74440;52.600;21.450;2023-11-25T18:28:22;3;3;3
84282;PMS7003;74440;52.600;21.450;2023-11-25T18:29:37;9;8;5
84282;PMS7003;74440;52.600;21.450;2023-11-25T18:30:39;9;8;5
84282;PMS7003;74440;52.600;21.450;2023-11-25T18:31:54;8;7;5
84282;PMS7003;74440;52.600;21.450;2023-11-25T18:32:56;8;7;5
84282;PMS7003;74440;52.600;21.450;2023-11-25T18:34:11;7;5;3
84282;PMS7003;74440;52.600;21.450;2023-11-25T18:35:13;7;5;3
84282;PMS7003;74440;52.600;21.450;2023-11-25T18:36:28;6;5;4
84282;PMS7003;74440;52.600;21.450;2023-11-25T18:37:30;6;5;4
84282;PMS7003;74440;52.600;21.450;2023-11-25T18:38:45;11;7;4
84282;PMS7003;74440;52.600;21.450;2023-11-25T18:39:46;11;7;4
84282;PMS7003;74440;52.600;21.450;2023-11-25T18:41:05;9;9;6
84282;PMS7003;74440;52.600;21.450;2023-11-25T18:42:10;9;9;6
84282;PMS7003;74440;52.600;21.450;2023-11-25T18:43:18;8;6;4
84282;PMS7003;74440;52.600;21.450;2023-11-25T18:44:20;8;6;4
84282;PMS7003;74440;52.600;21.450;2023-11-25T18:45:35;14;10;7
84282;PMS7003;74440;52.600;21.450;2023-11-25T18:46:37;14;10;7
84282;PMS7003;74440;52.600;21.450;2023-11-25T18:47:52;11;10;6
84282;PMS7003;74440;52.600;21.450;2023-11-25T18:48:54;11;10;6
84282;PMS7003;74440;52.600;21.450;2023-11-25T18:50:09;7;7;5
84282;PMS7003;74440;52.600;21.450;2023-11-25T18:51:11;7;7;5
84282;PMS7003;74440;52.600;21.450;2023-11-25T18:52:26;11;9;7
84282;PMS7003;74440;52.600;21.450;2023-11-25T18:53:28;11;9;7
84282;PMS7003;74440;52.600;21.450;2023-11-25T18:54:43;8;7;4
84282;PMS7003;74440;52.600;21.450;2023-11-25T18:55:45;8;7;4
84282;PMS7003;74440;52.600;21.450;2023-11-25T18:57:00;7;6;5
84282;PMS7003;74440;52.600;21.450;2023-11-25T18:58:03;7;6;5
84282;PMS7003;74440;52.600;21.450;2023-11-25T18:59:16;6;6;4
84282;PMS7003;74440;52.600;21.450;2023-11-25T19:00:18;6;6;4
84282;PMS7003;74440;52.600;21.450;2023-11-25T19:01:34;3;3;2
84282;PMS7003;74440;52.600;21.450;2023-11-25T19:02:36;3;3;2
84282;PMS7003;74440;52.600;21.450;2023-11-25T19:03:50;6;5;3
84282;PMS7003;74440;52.600;21.450;2023-11-25T19:04:52;6;5;3
84282;PMS7003;74440;52.600;21.450;2023-11-25T19:06:07;5;4;3
84282;PMS7003;74440;52.600;21.450;2023-11-25T19:07:09;5;4;3
84282;PMS7003;74440;52.600;21.450;2023-11-25T19:08:24;4;3;2
84282;PMS7003;74440;52.600;21.450;2023-11-25T19:09:25;4;3;2
84282;PMS7003;74440;52.600;21.450;2023-11-25T19:10:41;6;4;2
84282;PMS7003;74440;52.600;21.450;2023-11-25T19:11:42;6;4;2
84282;PMS7003;74440;52.600;21.450;2023-11-25T19:12:57;5;4;3
84282;PMS7003;74440;52.600;21.450;2023-11-25T19:14:00;5;4;3
84282;PMS7003;74440;52.600;21.450;2023-11-25T19:15:14;5;4;3
84282;PMS7003;74440;52.600;21.450;2023-11-25T19:16:17;5;4;3
84282;PMS7003;74440;52.600;21.450;2023-11-25T19:17:31;7;5;4
84282;PMS7003;74440;52.600;21.450;2023-11-25T19:18:36;7;5;4
84282;PMS7003;74440;52.600;21.450;2023-11-25T19:19:48;4;4;4
84282;PMS7003;74440;52.600;21.450;2023-11-25T19:20:50;4;4;4
84282;PMS7003;74440;52.600;21.450;2023-11-25T19:22:05;6;4;3
84282;PMS7003;74440;52.600;21.450;2023-11-25T19:23:08;6;4;3
84282;PMS7003;74440;52.600;21.450;2023-11-25T19:24:22;6;6;3
84282;PMS7003;74440;52.600;21.450;2023-11-25T19:25:23;6;6;3
84282;PMS7003;74440;52.600;21.450;2023-11-25T19:26:39;5;4;3
84282;PMS7003;74440;52.600;21.450;2023-11-25T19:27:43;5;4;3
84282;PMS7003;74440;52.600;21.450;2023-11-25T19:28:55;3;3;2
84282;PMS7003;74440;52.600;21.450;2023-11-25T19:29:57;3;3;2
84282;PMS7003;74440;52.600;21.450;2023-11-25T19:31:12;6;5;4
84282;PMS7003;74440;52.600;21.450;2023-11-25T19:32:14;6;5;4
84282;PMS7003;74440;52.600;21.450;2023-11-25T19:33:29;9;6;4
84282;PMS7003;74440;52.600;21.450;2023-11-25T19:34:31;9;6;4
84282;PMS7003;74440;52.600;21.450;2023-11-25T19:35:46;5;5;4
84282;PMS7003;74440;52.600;21.450;2023-11-25T19:36:48;5;5;4
84282;PMS7003;74440;52.600;21.450;2023-11-25T19:38:03;7;7;4
84282;PMS7003;74440;52.600;21.450;2023-11-25T19:39:05;7;7;4
84282;PMS7003;74440;52.600;21.450;2023-11-25T19:40:20;7;5;3
84282;PMS7003;74440;52.600;21.450;2023-11-25T19:41:22;7;5;3
84282;PMS7003;74440;52.600;21.450;2023-11-25T19:42:37;8;8;5
84282;PMS7003;74440;52.600;21.450;2023-11-25T19:43:38;8;8;5
84282;PMS7003;74440;52.600;21.450;2023-11-25T19:44:53;7;6;4
84282;PMS7003;74440;52.600;21.450;2023-11-25T19:45:55;7;6;4
84282;PMS7003;74440;52.600;21.450;2023-11-25T19:47:10;7;7;4
84282;PMS7003;74440;52.600;21.450;2023-11-25T19:48:12;7;7;4
84282;PMS7003;74440;52.600;21.450;2023-11-25T19:50:46;5;5;3
84282;PMS7003;74440;52.600;21.450;2023-11-25T19:51:48;2;1;0
84282;PMS7003;74440;52.600;21.450;2023-11-25T19:52:52;2;1;0
84282;PMS7003;74440;52.600;21.450;2023-11-25T19:54:01;7;6;4
84282;PMS7003;74440;52.600;21.450;2023-11-25T20:27:35;16;15;9
84282;PMS7003;74440;52.600;21.450;2023-11-25T20:35:50;8;7;5
84282;PMS7003;74440;52.600;21.450;2023-11-25T20:39:55;5;5;2
84282;PMS7003;74440;52.600;21.450;2023-11-25T20:44:06;8;8;5
84282;PMS7003;74440;52.600;21.450;2023-11-25T20:48:10;9;8;5
84282;PMS7003;74440;52.600;21.450;2023-11-25T20:52:12;7;6;5
84282;PMS7003;74440;52.600;21.450;2023-11-25T20:56:14;6;5;4
84282;PMS7003;74440;52.600;21.450;2023-11-25T21:00:18;5;5;3
84282;PMS7003;74440;52.600;21.450;2023-11-25T21:04:20;9;6;3
84282;PMS7003;74440;52.600;21.450;2023-11-25T21:08:22;7;6;3
84282;PMS7003;74440;52.600;21.450;2023-11-25T21:12:23;4;4;2
84282;PMS7003;74440;52.600;21.450;2023-11-25T21:16:25;2;2;1
84282;PMS7003;74440;52.600;21.450;2023-11-25T21:20:37;2;1;0
84282;PMS7003;74440;52.600;21.450;2023-11-25T21:24:39;2;2;1
84282;PMS7003;74440;52.600;21.450;2023-11-25T21:28:40;2;2;1
84282;PMS7003;74440;52.600;21.450;2023-11-25T21:32:43;2;1;1
84282;PMS7003;74440;52.600;21.450;2023-11-25T21:36:45;1;1;1
84282;PMS7003;74440;52.600;21.450;2023-11-25T21:40:46;2;2;1
84282;PMS7003;74440;52.600;21.450;2023-11-25T21:44:48;3;3;1
84282;PMS7003;74440;52.600;21.450;2023-11-25T21:48:51;2;2;1
84282;PMS7003;74440;52.600;21.450;2023-11-25T21:52:53;2;2;1
84282;PMS7003;74440;52.600;21.450;2023-11-25T21:57:06;1;1;0
84282;PMS7003;74440;52.600;21.450;2023-11-25T22:01:09;2;2;1
84282;PMS7003;74440;52.600;21.450;2023-11-25T22:05:11;4;2;1
84282;PMS7003;74440;52.600;21.450;2023-11-25T22:09:14;0;0;0
84282;PMS7003;74440;52.600;21.450;2023-11-25T22:13:16;2;2;0
84282;PMS7003;74440;52.600;21.450;2023-11-25T22:17:18;0;0;0
84282;PMS7003;74440;52.600;21.450;2023-11-25T22:21:20;0;0;0
84282;PMS7003;74440;52.600;21.450;2023-11-25T22:25:22;1;1;0
84282;PMS7003;74440;52.600;21.450;2023-11-25T22:29:34;0;0;0
84282;PMS7003;74440;52.600;21.450;2023-11-25T22:33:36;0;0;0
84282;PMS7003;74440;52.600;21.450;2023-11-25T22:37:38;1;0;0
84282;PMS7003;74440;52.600;21.450;2023-11-25T22:41:40;2;0;0
84282;PMS7003;74440;52.600;21.450;2023-11-25T22:45:42;1;0;0
84282;PMS7003;74440;52.600;21.450;2023-11-25T22:49:43;1;1;0
84282;PMS7003;74440;52.600;21.450;2023-11-25T22:53:45;2;1;0
84282;PMS7003;74440;52.600;21.450;2023-11-25T22:57:50;0;0;0
84282;PMS7003;74440;52.600;21.450;2023-11-25T23:01:51;0;0;0
84282;PMS7003;74440;52.600;21.450;2023-11-25T23:05:53;1;1;0
84282;PMS7003;74440;52.600;21.450;2023-11-25T23:10:06;1;1;0
84282;PMS7003;74440;52.600;21.450;2023-11-25T23:14:08;0;0;0
84282;PMS7003;74440;52.600;21.450;2023-11-25T23:18:10;2;2;0
84282;PMS7003;74440;52.600;21.450;2023-11-25T23:22:12;0;0;0
84282;PMS7003;74440;52.600;21.450;2023-11-25T23:26:13;2;1;0
84282;PMS7003;74440;52.600;21.450;2023-11-25T23:30:15;2;2;0
84282;PMS7003;74440;52.600;21.450;2023-11-25T23:34:17;0;0;0
84282;PMS7003;74440;52.600;21.450;2023-11-25T23:38:22;0;0;0
84282;PMS7003;74440;52.600;21.450;2023-11-25T23:42:23;2;2;1
84282;PMS7003;74440;52.600;21.450;2023-11-25T23:46:35;1;1;0
84282;PMS7003;74440;52.600;21.450;2023-11-25T23:50:37;2;2;1
84282;PMS7003;74440;52.600;21.450;2023-11-25T23:54:38;3;3;2
84282;PMS7003;74440;52.600;21.450;2023-11-25T23:58:42;1;1;0
